Time;durP1;ratioP1;P1;durP2;ratioP2;P2;SDS_P1;SDS_P2;PMS_P1;PMS_P2;Temp;Humidity;BMP_temperature;BMP_pressure;BME280_temperature;BME280_humidity;BME280_pressure;Samples;Min_cycle;Max_cycle;Signal;HPM_P1;HPM_P2
2023/06/14 00:02:23;;;;;;;7.55;2.45;;;16.40;70.80;;;;;;5013443;28;20115;-46
2023/06/14 00:04:52;;;;;;;9.23;2.10;;;16.40;71.10;;;;;;5013580;28;20034;-46
2023/06/14 00:07:33;;;;;;;5.43;2.30;;;16.30;70.80;;;;;;5013495;28;20037;-48
2023/06/14 00:09:59;;;;;;;6.75;2.35;;;16.30;71.00;;;;;;5032200;28;20521;-46
2023/06/14 00:12:26;;;;;;;5.25;1.60;;;16.30;71.20;;;;;;5032925;28;20496;-48
2023/06/14 00:14:53;;;;;;;3.35;2.13;;;16.20;71.80;;;;;;5033329;28;20033;-50
2023/06/14 00:17:20;;;;;;;6.85;2.00;;;16.20;72.00;;;;;;5017470;28;20036;-47
2023/06/14 00:19:47;;;;;;;10.73;3.25;;;16.20;72.10;;;;;;5013513;28;20026;-46
2023/06/14 00:22:13;;;;;;;6.90;2.15;;;16.10;72.00;;;;;;5013259;28;20026;-48
2023/06/14 00:24:38;;;;;;;5.15;2.33;;;16.10;72.40;;;;;;5013174;28;20088;-46
2023/06/14 00:27:08;;;;;;;5.10;2.33;;;16.00;72.50;;;;;;5013070;28;20026;-47
2023/06/14 00:29:34;;;;;;;6.50;2.38;;;16.00;72.70;;;;;;5012686;28;20495;-46
2023/06/14 00:32:00;;;;;;;3.53;2.17;;;16.00;72.80;;;;;;5012923;28;20117;-47
2023/06/14 00:34:30;;;;;;;6.88;2.40;;;16.00;73.40;;;;;;5012853;28;20088;-48
2023/06/14 00:36:56;;;;;;;6.32;3.08;;;15.90;73.40;;;;;;5011740;28;20061;-47
2023/06/14 00:39:22;;;;;;;5.20;2.50;;;15.90;73.80;;;;;;5012695;28;20096;-46
2023/06/14 00:41:51;;;;;;;4.35;2.30;;;15.90;74.10;;;;;;5011663;28;20343;-46
2023/06/14 00:44:21;;;;;;;7.22;2.70;;;15.80;74.60;;;;;;5032553;28;20040;-46
2023/06/14 00:46:48;;;;;;;5.38;2.42;;;15.80;74.90;;;;;;5032438;28;20063;-46
2023/06/14 00:49:19;;;;;;;6.82;2.30;;;15.80;74.90;;;;;;5032865;28;20364;-46
2023/06/14 00:51:46;;;;;;;6.10;3.00;;;15.80;75.40;;;;;;5031143;28;20076;-46
2023/06/14 00:54:12;;;;;;;6.70;2.70;;;15.80;75.40;;;;;;5017052;28;20030;-47
2023/06/14 00:56:44;;;;;;;10.20;3.38;;;15.70;75.70;;;;;;5016924;28;20038;-46
2023/06/14 00:59:15;;;;;;;4.25;2.28;;;15.70;75.90;;;;;;5015883;28;20034;-46
2023/06/14 01:01:40;;;;;;;6.70;2.67;;;15.70;75.80;;;;;;5016583;28;20038;-46
2023/06/14 01:04:09;;;;;;;4.25;2.47;;;15.60;75.70;;;;;;5023865;28;20034;-46
2023/06/14 01:07:13;;;;;;;6.85;2.83;;;15.60;75.80;;;;;;5036656;28;20022;-46
2023/06/14 01:10:08;;;;;;;6.78;2.55;;;15.60;75.90;;;;;;5036426;28;20021;-46
2023/06/14 01:12:58;;;;;;;4.32;2.20;;;15.50;76.10;;;;;;5034288;28;20053;-46
2023/06/14 01:15:26;;;;;;;5.85;2.63;;;15.50;76.40;;;;;;5016465;28;20025;-48
2023/06/14 01:17:57;;;;;;;5.40;2.58;;;15.50;76.30;;;;;;5015322;28;20034;-47
2023/06/14 01:20:29;;;;;;;4.32;2.60;;;15.40;76.70;;;;;;5016507;28;20066;-46
2023/06/14 01:22:56;;;;;;;5.78;2.60;;;15.40;76.80;;;;;;5015921;28;20030;-46
2023/06/14 01:25:23;;;;;;;4.47;2.40;;;15.40;76.90;;;;;;5016270;28;20064;-46
2023/06/14 01:28:03;;;;;;;8.05;2.83;;;15.40;77.10;;;;;;5016305;28;20026;-46
2023/06/14 01:30:33;;;;;;;6.35;2.70;;;15.40;77.20;;;;;;5016395;28;20014;-46
2023/06/14 01:33:00;;;;;;;;;;;15.40;77.20;;;;;;5048139;28;20032;-47
2023/06/14 01:35:27;;;;;;;5.13;2.60;;;15.40;77.80;;;;;;5035737;28;19909;-45
2023/06/14 01:37:54;;;;;;;8.98;2.90;;;15.40;77.90;;;;;;5021126;28;20488;-46
2023/06/14 01:40:22;;;;;;;5.55;3.03;;;15.40;78.00;;;;;;5015842;28;20041;-47
2023/06/14 01:42:50;;;;;;;9.90;3.90;;;15.30;78.20;;;;;;5015647;28;20022;-46
2023/06/14 01:45:18;;;;;;;6.22;2.97;;;15.30;78.60;;;;;;5015637;28;20135;-47
2023/06/14 01:47:48;;;;;;;4.93;3.00;;;15.30;78.60;;;;;;5015938;28;20490;-47
2023/06/14 01:50:22;;;;;;;4.32;2.78;;;15.30;78.90;;;;;;5016105;28;20092;-46
2023/06/14 01:52:47;;;;;;;8.55;3.63;;;15.30;78.90;;;;;;5016038;28;20030;-46
2023/06/14 01:55:17;;;;;;;7.88;3.25;;;15.20;79.10;;;;;;5015783;28;20103;-48
2023/06/14 01:57:44;;;;;;;;;;;15.30;79.40;;;;;;5016181;28;20030;-46
2023/06/14 02:00:12;;;;;;;6.20;2.90;;;15.20;79.50;;;;;;5015746;28;19917;-46
2023/06/14 02:02:39;;;;;;;9.75;3.20;;;15.10;79.40;;;;;;5014823;28;20420;-47
2023/06/14 02:05:07;;;;;;;7.30;3.60;;;15.10;79.70;;;;;;5014409;28;20029;-46
2023/06/14 02:07:34;;;;;;;9.13;3.00;;;15.10;80.00;;;;;;5015776;28;20033;-46
2023/06/14 02:10:01;;;;;;;6.53;3.05;;;15.00;80.30;;;;;;5015651;28;20343;-46
2023/06/14 02:12:28;;;;;;;6.85;3.47;;;15.00;80.10;;;;;;5015169;28;20049;-47
2023/06/14 02:14:56;;;;;;;5.80;3.17;;;15.00;80.40;;;;;;5024542;28;20112;-46
2023/06/14 02:17:22;;;;;;;4.90;3.30;;;15.00;80.50;;;;;;5035187;28;20026;-47
2023/06/14 02:19:50;;;;;;;8.48;3.42;;;15.00;80.30;;;;;;5015668;28;20890;-50
2023/06/14 02:22:21;;;;;;;5.40;3.20;;;15.00;80.40;;;;;;5015321;28;20419;-46
2023/06/14 02:24:47;;;;;;;6.00;2.95;;;15.00;80.60;;;;;;5015415;28;20122;-47
2023/06/14 02:27:18;;;;;;;6.70;3.70;;;15.00;80.80;;;;;;5015394;28;20030;-49
2023/06/14 02:29:44;;;;;;;7.50;3.70;;;15.00;80.80;;;;;;5019901;28;20493;-46
2023/06/14 02:32:09;;;;;;;6.65;3.67;;;14.90;81.00;;;;;;5034555;28;20025;-45
2023/06/14 02:34:41;;;;;;;8.13;3.40;;;14.90;81.20;;;;;;5034318;28;20037;-46
2023/06/14 02:37:09;;;;;;;8.70;3.42;;;14.90;81.40;;;;;;5031269;28;20084;-48
2023/06/14 02:39:37;;;;;;;8.93;4.13;;;14.90;81.40;;;;;;5014242;28;20029;-46
2023/06/14 02:42:06;;;;;;;4.70;3.43;;;14.90;81.50;;;;;;5014213;28;20502;-46
2023/06/14 02:44:35;;;;;;;8.38;3.67;;;14.90;81.90;;;;;;5033867;28;20163;-46
2023/06/14 02:47:02;;;;;;;12.17;5.73;;;14.90;81.90;;;;;;5034779;28;20078;-47
2023/06/14 02:49:30;;;;;;;9.55;4.07;;;14.90;82.20;;;;;;5027210;28;20064;-45
2023/06/14 02:51:56;;;;;;;4.82;3.58;;;14.90;82.10;;;;;;5014825;28;20431;-47
2023/06/14 02:54:22;;;;;;;6.00;3.75;;;14.90;82.20;;;;;;5014718;28;20038;-48
2023/06/14 02:56:50;;;;;;;6.75;4.47;;;14.80;82.50;;;;;;5014743;28;20057;-46
2023/06/14 02:59:21;;;;;;;5.47;3.33;;;14.80;82.60;;;;;;5025383;28;20039;-46
2023/06/14 03:01:47;;;;;;;10.73;3.55;;;14.80;82.90;;;;;;5034346;28;20037;-45
2023/06/14 03:04:13;;;;;;;7.88;3.95;;;14.90;82.90;;;;;;5033998;28;20041;-45
2023/06/14 03:06:39;;;;;;;6.18;3.70;;;14.80;83.00;;;;;;5027412;28;20176;-46
2023/06/14 03:09:09;;;;;;;6.38;3.95;;;14.80;83.10;;;;;;5014523;28;20022;-48
2023/06/14 03:11:36;;;;;;;8.38;3.83;;;14.80;83.10;;;;;;5014402;28;20456;-47
2023/06/14 03:14:04;;;;;;;8.32;4.03;;;14.70;83.10;;;;;;5014192;28;20470;-47
2023/06/14 03:16:31;;;;;;;9.38;3.67;;;14.80;83.20;;;;;;5014404;28;20379;-49
2023/06/14 03:18:58;;;;;;;10.70;4.43;;;14.80;83.00;;;;;;5013777;28;20026;-46
2023/06/14 03:21:25;;;;;;;6.03;3.42;;;14.80;83.20;;;;;;5014368;28;20025;-48
2023/06/14 03:23:52;;;;;;;6.90;3.67;;;14.80;83.20;;;;;;5031017;28;20059;-46
2023/06/14 03:26:20;;;;;;;10.68;4.47;;;14.80;83.70;;;;;;5033919;28;20029;-46
2023/06/14 03:28:49;;;;;;;10.60;4.60;;;14.80;83.80;;;;;;5033864;28;20447;-45
2023/06/14 03:31:16;;;;;;;6.50;4.03;;;14.80;83.90;;;;;;5017022;28;20084;-45
2023/06/14 03:33:43;;;;;;;8.75;4.18;;;14.80;83.90;;;;;;5014195;28;20030;-48
2023/06/14 03:36:10;;;;;;;6.32;4.47;;;14.80;84.10;;;;;;5014139;28;20051;-46
2023/06/14 03:38:36;;;;;;;8.02;3.60;;;14.80;84.20;;;;;;5013955;28;20025;-45
2023/06/14 03:41:03;;;;;;;6.50;3.42;;;14.90;84.30;;;;;;5012848;28;20049;-45
2023/06/14 03:43:34;;;;;;;9.00;4.40;;;14.90;84.10;;;;;;5014022;28;20042;-45
2023/06/14 03:46:01;;;;;;;14.77;4.82;;;14.90;84.00;;;;;;5012835;28;20443;-46
2023/06/14 03:48:30;;;;;;;7.97;4.00;;;14.90;84.40;;;;;;5013893;28;20040;-47
2023/06/14 03:50:58;;;;;;;9.10;4.47;;;14.90;84.30;;;;;;5013844;28;20025;-47
2023/06/14 03:53:24;;;;;;;5.32;4.18;;;14.90;84.30;;;;;;5013882;28;20025;-46
2023/06/14 03:55:54;;;;;;;7.32;3.70;;;14.90;84.50;;;;;;5013724;28;20073;-46
2023/06/14 03:58:21;;;;;;;;;;;15.00;84.40;;;;;;5014263;28;20097;-46
2023/06/14 04:00:51;;;;;;;7.10;3.63;;;15.00;84.20;;;;;;5012388;28;20330;-46
2023/06/14 04:03:28;;;;;;;7.28;4.28;;;15.00;84.60;;;;;;5013474;28;20029;-45
2023/06/14 04:05:59;;;;;;;5.25;3.08;;;15.00;84.50;;;;;;5013723;28;20097;-46
2023/06/14 04:08:26;;;;;;;8.30;3.78;;;15.00;84.30;;;;;;5012553;28;20018;-45
2023/06/14 04:10:53;;;;;;;6.80;4.00;;;15.00;84.30;;;;;;5013440;28;20104;-46
2023/06/14 04:13:19;;;;;;;8.45;4.30;;;15.00;84.50;;;;;;5013127;28;20060;-46
2023/06/14 04:15:49;;;;;;;7.38;3.65;;;15.00;84.40;;;;;;5013426;28;20037;-45
2023/06/14 04:18:16;;;;;;;9.02;4.15;;;15.00;84.30;;;;;;5013365;28;20360;-45
2023/06/14 04:20:43;;;;;;;7.50;3.83;;;15.00;84.30;;;;;;5023127;28;20391;-45
2023/06/14 04:23:21;;;;;;;6.57;3.65;;;15.10;84.20;;;;;;5032971;28;20021;-45
2023/06/14 04:25:49;;;;;;;7.32;3.83;;;15.20;84.30;;;;;;5032121;28;20018;-46
2023/06/14 04:28:26;;;;;;;5.55;3.70;;;15.20;84.20;;;;;;5028592;28;20025;-45
2023/06/14 04:30:53;;;;;;;7.72;3.63;;;15.30;83.90;;;;;;5012992;28;20359;-45
2023/06/14 04:33:20;;;;;;;9.85;4.25;;;15.40;83.80;;;;;;5013257;28;20029;-46
2023/06/14 04:35:47;;;;;;;7.50;3.55;;;15.40;83.60;;;;;;5013206;28;20503;-45
2023/06/14 04:38:15;;;;;;;7.38;3.53;;;15.50;83.20;;;;;;5011909;28;20033;-47
2023/06/14 04:40:45;;;;;;;12.52;4.95;;;15.70;82.70;;;;;;5013375;28;20391;-47
2023/06/14 04:43:17;;;;;;;6.88;3.83;;;15.90;82.50;;;;;;5013053;28;20018;-45
2023/06/14 04:45:46;;;;;;;7.53;4.03;;;16.00;82.20;;;;;;5013292;28;20083;-47
2023/06/14 04:48:13;;;;;;;5.60;3.72;;;16.10;81.90;;;;;;5013272;28;20511;-48
2023/06/14 04:50:40;;;;;;;7.18;4.43;;;16.10;82.10;;;;;;5013121;28;20064;-47
2023/06/14 04:53:06;;;;;;;6.28;4.00;;;16.10;82.20;;;;;;5012521;28;20486;-48
2023/06/14 04:55:33;;;;;;;12.02;4.18;;;16.10;82.30;;;;;;5012360;28;20054;-46
2023/06/14 04:58:00;;;;;;;8.63;3.88;;;16.00;82.30;;;;;;5011922;28;20443;-45
2023/06/14 05:00:27;;;;;;;6.05;3.42;;;16.10;82.20;;;;;;5013011;28;20359;-46
2023/06/14 05:02:53;;;;;;;7.55;3.83;;;16.10;82.20;;;;;;5026079;28;20104;-46
2023/06/14 05:05:20;;;;;;;10.10;3.47;;;16.00;82.20;;;;;;5032713;28;20187;-47
2023/06/14 05:07:46;;;;;;;7.85;4.25;;;16.00;82.40;;;;;;5032463;28;20097;-47
2023/06/14 05:10:13;;;;;;;5.55;3.50;;;16.00;82.10;;;;;;5018056;28;20036;-46
2023/06/14 05:12:40;;;;;;;8.98;4.20;;;16.00;82.20;;;;;;5011333;28;20125;-46
2023/06/14 05:15:08;;;;;;;6.60;4.00;;;16.00;82.20;;;;;;5013023;28;20079;-46
2023/06/14 05:17:35;;;;;;;8.38;3.38;;;16.10;82.50;;;;;;5012495;28;20057;-46
2023/06/14 05:20:03;;;;;;;6.75;4.20;;;16.10;82.60;;;;;;5011967;28;20548;-46
2023/06/14 05:22:28;;;;;;;8.00;3.85;;;16.10;82.10;;;;;;5011702;28;20030;-45
2023/06/14 05:24:54;;;;;;;9.13;5.10;;;16.10;82.20;;;;;;5014434;28;20033;-46
2023/06/14 05:27:24;;;;;;;9.15;4.50;;;16.10;82.10;;;;;;5032135;28;20029;-46
2023/06/14 05:29:50;;;;;;;9.35;4.00;;;16.20;82.00;;;;;;5031667;28;20021;-47
2023/06/14 05:32:20;;;;;;;6.88;3.92;;;16.10;82.30;;;;;;5026286;28;20060;-47
2023/06/14 05:34:50;;;;;;;9.30;4.80;;;16.10;82.10;;;;;;5012693;28;20038;-48
2023/06/14 05:37:17;;;;;;;;;;;16.20;82.00;;;;;;5015656;28;20030;-45
2023/06/14 05:39:46;;;;;;;8.95;3.97;;;16.20;82.10;;;;;;5016234;28;19913;-46
2023/06/14 05:42:13;;;;;;;5.07;3.53;;;16.20;82.30;;;;;;5016257;28;20029;-46
2023/06/14 05:44:40;;;;;;;6.65;3.83;;;16.20;82.30;;;;;;5015990;28;20126;-46
2023/06/14 05:47:07;;;;;;;8.00;3.95;;;16.40;82.00;;;;;;5015928;28;20075;-46
2023/06/14 05:49:34;;;;;;;8.15;4.97;;;16.50;81.80;;;;;;5015777;28;20026;-47
2023/06/14 05:51:59;;;;;;;7.47;4.75;;;16.70;81.30;;;;;;5024307;28;20048;-48
2023/06/14 05:54:25;;;;;;;4.85;3.30;;;17.00;80.40;;;;;;5034509;28;20259;-47
2023/06/14 05:56:52;;;;;;;6.03;3.72;;;17.30;79.40;;;;;;5035171;28;20053;-46
2023/06/14 05:59:20;;;;;;;9.02;3.67;;;17.70;78.80;;;;;;5026107;28;20541;-46
2023/06/14 06:01:51;;;;;;;5.38;3.15;;;18.00;76.60;;;;;;5015602;28;20033;-48
2023/06/14 06:04:19;;;;;;;10.20;3.78;;;18.50;76.00;;;;;;5015254;28;20069;-48
2023/06/14 06:06:47;;;;;;;4.97;3.20;;;18.90;74.30;;;;;;5030682;28;20131;-46
2023/06/14 06:09:14;;;;;;;7.05;3.67;;;19.10;73.10;;;;;;5014320;28;20021;-46
2023/06/14 06:11:41;;;;;;;12.27;4.82;;;19.20;72.60;;;;;;5015223;28;20513;-46
2023/06/14 06:14:08;;;;;;;5.60;3.38;;;19.40;71.50;;;;;;5015008;28;20069;-49
2023/06/14 06:16:35;;;;;;;7.70;4.00;;;19.30;70.90;;;;;;5017127;28;20022;-48
2023/06/14 06:19:02;;;;;;;9.07;3.63;;;19.40;70.70;;;;;;5014999;28;20467;-47
2023/06/14 06:21:28;;;;;;;6.93;3.75;;;19.70;70.10;;;;;;5015164;28;20030;-47
2023/06/14 06:23:55;;;;;;;7.22;3.90;;;19.60;69.60;;;;;;5014847;28;20034;-49
2023/06/14 06:26:22;;;;;;;6.85;3.42;;;19.60;69.30;;;;;;5015280;28;20034;-47
2023/06/14 06:28:48;;;;;;;7.55;3.80;;;19.40;69.80;;;;;;5015105;28;20113;-48
2023/06/14 06:31:15;;;;;;;4.95;3.40;;;19.40;70.50;;;;;;5015191;28;20081;-47
2023/06/14 06:33:42;;;;;;;7.40;3.22;;;19.40;70.20;;;;;;5015188;28;20030;-47
2023/06/14 06:36:09;;;;;;;6.30;3.58;;;19.70;70.20;;;;;;5015073;28;20026;-47
2023/06/14 06:38:36;;;;;;;7.32;3.67;;;19.90;70.10;;;;;;5014374;28;20041;-48
2023/06/14 06:41:03;;;;;;;9.95;3.30;;;19.90;70.10;;;;;;5030640;28;20025;-51
2023/06/14 06:43:30;;;;;;;5.53;3.28;;;19.90;70.10;;;;;;5014835;28;20084;-47
2023/06/14 06:45:56;;;;;;;11.07;3.72;;;19.70;70.40;;;;;;5014938;28;20065;-47
2023/06/14 06:48:23;;;;;;;9.32;3.50;;;19.60;70.60;;;;;;5014220;28;20041;-47
2023/06/14 06:50:49;;;;;;;6.07;3.47;;;19.60;70.00;;;;;;5015056;28;20466;-47
2023/06/14 06:53:18;;;;;;;5.80;3.63;;;19.60;69.40;;;;;;5014933;28;20030;-47
2023/06/14 06:55:45;;;;;;;7.78;3.42;;;19.60;70.10;;;;;;5014699;28;20519;-47
2023/06/14 06:58:13;;;;;;;7.38;3.67;;;19.70;70.40;;;;;;5015185;28;20030;-47
2023/06/14 07:00:39;;;;;;;5.22;3.20;;;19.80;70.40;;;;;;5015032;28;20022;-47
2023/06/14 07:03:06;;;;;;;6.03;2.95;;;19.90;69.20;;;;;;5013949;28;20463;-47
2023/06/14 07:05:32;;;;;;;5.93;3.33;;;19.90;69.00;;;;;;5014432;28;20430;-47
2023/06/14 07:08:02;;;;;;;6.05;2.85;;;20.30;69.10;;;;;;5014592;28;20033;-47
2023/06/14 07:10:29;;;;;;;5.47;3.38;;;20.40;68.50;;;;;;5014472;28;20075;-47
2023/06/14 07:12:55;;;;;;;6.32;3.45;;;20.40;67.70;;;;;;5014799;28;20057;-47
2023/06/14 07:15:21;;;;;;;7.25;3.10;;;20.70;67.00;;;;;;5014373;28;20026;-47
2023/06/14 07:17:48;;;;;;;5.57;3.38;;;20.80;66.70;;;;;;5014629;28;20061;-48
2023/06/14 07:20:16;;;;;;;6.07;3.60;;;21.00;64.90;;;;;;5014310;28;20336;-49
2023/06/14 07:22:47;;;;;;;7.68;3.67;;;21.30;65.80;;;;;;5014296;28;20113;-49
2023/06/14 07:25:15;;;;;;;8.63;3.75;;;21.60;65.20;;;;;;5013946;28;20037;-47
2023/06/14 07:27:43;;;;;;;5.38;3.17;;;21.90;62.60;;;;;;5013961;28;20033;-47
2023/06/14 07:30:10;;;;;;;7.63;3.83;;;22.40;62.70;;;;;;5013088;28;20355;-47
2023/06/14 07:32:38;;;;;;;8.30;4.03;;;22.70;61.40;;;;;;5014085;28;20574;-48
2023/06/14 07:35:07;;;;;;;7.75;3.90;;;22.90;60.90;;;;;;5013893;28;20037;-49
2023/06/14 07:37:35;;;;;;;16.70;8.57;;;23.00;59.30;;;;;;5013097;28;20034;-47
2023/06/14 07:40:06;;;;;;;5.80;4.00;;;23.50;58.50;;;;;;5014004;28;20068;-48
2023/06/14 07:42:35;;;;;;;13.63;7.35;;;23.70;57.50;;;;;;5013994;28;20022;-48
2023/06/14 07:45:03;;;;;;;8.67;4.13;;;24.00;57.30;;;;;;5012619;28;20034;-51
2023/06/14 07:47:28;;;;;;;17.27;12.18;;;24.20;56.30;;;;;;5012518;28;20384;-47
2023/06/14 07:49:55;;;;;;;8.25;4.20;;;24.50;56.20;;;;;;5013818;28;20101;-48
2023/06/14 07:52:23;;;;;;;7.40;4.57;;;24.10;55.30;;;;;;5012477;28;20030;-48
2023/06/14 07:54:52;;;;;;;6.75;4.15;;;24.20;55.20;;;;;;5013694;28;20030;-48
2023/06/14 07:57:20;;;;;;;8.32;3.58;;;24.40;54.80;;;;;;5013619;28;20045;-48
2023/06/14 07:59:47;;;;;;;5.78;2.70;;;24.70;54.40;;;;;;5012477;28;20493;-49
2023/06/14 08:02:14;;;;;;;9.10;3.85;;;24.90;54.10;;;;;;5013312;28;20345;-48
2023/06/14 08:04:43;;;;;;;7.72;3.83;;;24.80;54.60;;;;;;5012259;28;20049;-48
2023/06/14 08:07:10;;;;;;;;;;;25.30;54.60;;;;;;5013557;28;20025;-50
2023/06/14 08:09:38;;;;;;;8.27;3.17;;;25.50;52.90;;;;;;5013068;28;19963;-47
2023/06/14 08:12:13;;;;;;;7.28;3.42;;;25.80;52.80;;;;;;5012923;28;20022;-49
2023/06/14 08:14:42;;;;;;;6.63;3.63;;;25.80;50.90;;;;;;5012894;28;20503;-49
2023/06/14 08:17:11;;;;;;;6.43;3.63;;;25.50;50.50;;;;;;5012915;28;20038;-49
2023/06/14 08:19:38;;;;;;;5.20;3.20;;;25.60;50.10;;;;;;5012850;28;20323;-48
2023/06/14 08:22:06;;;;;;;5.57;3.00;;;26.00;51.00;;;;;;5012749;28;20540;-47
2023/06/14 08:24:33;;;;;;;3.80;2.50;;;26.10;50.70;;;;;;5012580;28;20037;-48
2023/06/14 08:27:01;;;;;;;5.25;3.03;;;26.30;49.50;;;;;;5012816;28;20056;-48
2023/06/14 08:29:29;;;;;;;5.05;3.60;;;26.20;49.10;;;;;;5012954;28;20014;-48
2023/06/14 08:31:55;;;;;;;6.80;3.15;;;26.20;48.00;;;;;;5013044;28;20022;-48
2023/06/14 08:34:23;;;;;;;5.15;3.60;;;26.40;48.90;;;;;;5011726;28;20037;-48
2023/06/14 08:36:50;;;;;;;7.82;3.00;;;26.50;49.60;;;;;;5012555;28;20414;-49
2023/06/14 08:39:21;;;;;;;6.00;3.88;;;26.30;50.60;;;;;;5024165;28;20057;-49
2023/06/14 08:41:48;;;;;;;7.07;3.78;;;25.90;49.90;;;;;;5033074;28;20105;-48
2023/06/14 08:44:21;;;;;;;9.48;3.20;;;25.90;50.70;;;;;;5015013;28;20030;-48
2023/06/14 08:46:51;;;;;;;7.88;2.80;;;25.80;51.90;;;;;;5012987;28;20037;-49
2023/06/14 08:49:21;;;;;;;5.30;3.17;;;25.90;51.60;;;;;;5038363;28;20044;-48
2023/06/14 08:51:53;;;;;;;;;;;25.60;50.70;;;;;;5033213;28;20029;-48
2023/06/14 08:54:23;;;;;;;5.32;3.17;;;25.90;52.60;;;;;;5032991;28;19909;-48
2023/06/14 08:56:52;;;;;;;5.75;3.20;;;26.00;53.10;;;;;;5021220;28;20045;-49
2023/06/14 08:59:17;;;;;;;6.32;3.47;;;25.80;52.90;;;;;;5012947;28;20037;-49
2023/06/14 09:01:45;;;;;;;5.28;3.10;;;25.70;53.70;;;;;;5013066;28;20088;-50
2023/06/14 09:04:12;;;;;;;8.93;3.63;;;25.70;53.90;;;;;;5012761;28;20069;-48
2023/06/14 09:06:40;;;;;;;6.82;3.15;;;25.50;54.40;;;;;;5011824;28;20022;-49
2023/06/14 09:09:07;;;;;;;5.90;3.47;;;25.40;53.40;;;;;;5012996;28;20022;-50
2023/06/14 09:11:35;;;;;;;7.40;3.67;;;25.50;57.20;;;;;;5014773;28;20101;-51
2023/06/14 09:14:02;;;;;;;6.88;3.22;;;25.60;54.60;;;;;;5025535;28;20050;-48
2023/06/14 09:16:28;;;;;;;5.53;3.70;;;25.80;53.40;;;;;;5036520;28;20034;-49
2023/06/14 09:18:54;;;;;;;9.13;3.60;;;26.00;53.00;;;;;;5036025;28;20030;-51
2023/06/14 09:21:21;;;;;;;6.30;3.53;;;25.70;52.70;;;;;;5036688;28;20079;-50
2023/06/14 09:23:47;;;;;;;7.97;3.25;;;25.80;54.60;;;;;;5024692;28;20117;-48
2023/06/14 09:26:14;;;;;;;7.35;3.70;;;25.90;54.90;;;;;;5015589;28;20030;-49
2023/06/14 09:28:59;;;;;;;5.68;2.90;;;26.10;53.90;;;;;;5024655;28;20078;-48
2023/06/14 09:31:29;;;;;;;5.63;3.42;;;25.90;52.10;;;;;;5036173;28;20105;-49
2023/06/14 09:33:56;;;;;;;7.80;4.10;;;25.80;53.90;;;;;;5036143;28;20087;-48
2023/06/14 09:36:25;;;;;;;6.22;3.55;;;25.60;54.60;;;;;;5021608;28;20029;-50
2023/06/14 09:39:09;;;;;;;7.43;4.07;;;25.50;56.60;;;;;;5016122;28;20033;-48
2023/06/14 09:41:53;;;;;;;5.13;3.05;;;25.50;55.20;;;;;;5016215;28;20037;-48
2023/06/14 09:44:20;;;;;;;6.05;3.45;;;25.60;55.90;;;;;;5015819;28;20132;-49
2023/06/14 09:46:51;;;;;;;7.32;3.63;;;25.80;55.20;;;;;;5034468;28;20075;-49
2023/06/14 09:49:20;;;;;;;7.25;3.08;;;25.80;54.90;;;;;;5035035;28;20029;-48
2023/06/14 09:51:52;;;;;;;6.03;3.85;;;25.80;54.60;;;;;;5030500;28;20400;-48
2023/06/14 09:54:23;;;;;;;6.20;2.85;;;25.70;56.00;;;;;;5015994;28;20108;-50
2023/06/14 09:56:51;;;;;;;6.60;3.00;;;26.10;53.30;;;;;;5016023;28;20025;-50
2023/06/14 09:59:29;;;;;;;6.05;2.78;;;25.80;53.90;;;;;;5031598;28;20030;-48
2023/06/14 10:01:58;;;;;;;6.70;3.45;;;25.90;55.00;;;;;;5015809;28;20553;-49
2023/06/14 10:04:25;;;;;;;4.57;3.47;;;25.60;55.80;;;;;;5018238;28;20021;-50
2023/06/14 10:06:56;;;;;;;6.45;3.95;;;25.40;57.70;;;;;;5035437;28;20038;-50
2023/06/14 10:09:22;;;;;;;9.00;4.50;;;25.40;59.00;;;;;;5035260;28;20543;-49
2023/06/14 10:11:50;;;;;;;6.45;4.18;;;25.70;59.40;;;;;;5034023;28;20117;-49
2023/06/14 10:14:19;;;;;;;14.63;4.55;;;25.50;59.20;;;;;;5015660;28;20165;-49
2023/06/14 10:17:05;;;;;;;;;;;25.30;61.50;;;;;;5015336;28;20013;-50
2023/06/14 10:20:14;;;;;;;7.13;3.33;;;25.40;60.90;;;;;;5015181;28;19909;-49
2023/06/14 10:22:55;;;;;;;6.80;4.10;;;25.30;56.50;;;;;;5014706;28;20073;-49
2023/06/14 10:25:30;;;;;;;6.13;3.20;;;25.20;56.60;;;;;;5015258;28;20105;-49
2023/06/14 10:28:18;;;;;;;9.68;3.78;;;25.40;57.10;;;;;;5015358;28;20048;-49
2023/06/14 10:31:14;;;;;;;8.38;3.85;;;25.20;54.90;;;;;;5014422;28;20026;-49
2023/06/14 10:33:54;;;;;;;5.32;3.78;;;24.90;57.80;;;;;;5015233;28;20149;-49
2023/06/14 10:36:23;;;;;;;5.70;3.08;;;24.90;56.40;;;;;;5015040;28;20106;-48
2023/06/14 10:39:10;;;;;;;5.07;3.25;;;25.10;55.70;;;;;;5015052;28;20037;-49
2023/06/14 10:41:40;;;;;;;6.25;3.40;;;25.20;56.40;;;;;;5014964;28;20030;-51
2023/06/14 10:44:20;;;;;;;6.20;3.70;;;24.90;57.00;;;;;;5014642;28;20363;-53
2023/06/14 10:46:54;;;;;;;6.95;3.67;;;24.90;55.10;;;;;;5015009;28;20053;-50
2023/06/14 10:49:41;;;;;;;5.75;3.08;;;24.90;59.00;;;;;;5015141;28;20018;-50
2023/06/14 10:52:16;;;;;;;10.77;3.78;;;25.00;55.80;;;;;;5014881;28;20097;-51
2023/06/14 10:55:09;;;;;;;8.05;3.55;;;25.30;56.90;;;;;;5014669;28;20045;-49
2023/06/14 10:57:45;;;;;;;6.50;3.47;;;24.90;56.40;;;;;;5014732;28;20459;-50
2023/06/14 11:00:15;;;;;;;8.45;3.40;;;25.10;57.70;;;;;;5014593;28;20049;-49
2023/06/14 11:03:21;;;;;;;9.30;4.05;;;25.00;57.60;;;;;;5013561;28;20371;-49
2023/06/14 11:06:13;;;;;;;12.50;3.92;;;25.00;58.50;;;;;;5014478;28;20037;-52
2023/06/14 11:09:18;;;;;;;8.77;3.70;;;24.80;57.00;;;;;;5030045;28;20545;-50
2023/06/14 11:11:49;;;;;;;7.53;3.53;;;24.80;59.90;;;;;;5014561;28;20444;-50
2023/06/14 11:14:19;;;;;;;5.65;3.63;;;24.50;58.00;;;;;;5013962;28;20487;-50
2023/06/14 11:16:51;;;;;;;8.50;3.95;;;24.40;59.10;;;;;;5033635;28;20034;-51
2023/06/14 11:19:19;;;;;;;7.15;3.22;;;24.50;58.40;;;;;;5028932;28;20022;-49
2023/06/14 11:21:49;;;;;;;11.15;3.55;;;24.50;59.00;;;;;;5014145;28;20459;-49
2023/06/14 11:24:14;;;;;;;5.45;3.05;;;24.50;58.20;;;;;;5013728;28;20034;-49
2023/06/14 11:26:41;;;;;;;6.03;3.25;;;24.70;57.80;;;;;;5013583;28;20032;-51
2023/06/14 11:29:08;;;;;;;7.90;4.00;;;25.00;59.40;;;;;;5013572;28;20022;-51
2023/06/14 11:31:35;;;;;;;8.48;3.70;;;24.90;56.80;;;;;;5013635;28;20076;-51
2023/06/14 11:34:00;;;;;;;13.93;11.48;;;25.20;55.90;;;;;;5015522;28;20036;-49
2023/06/14 11:36:32;;;;;;;10.35;4.55;;;24.90;59.50;;;;;;5033622;28;20033;-52
2023/06/14 11:39:16;;;;;;;8.70;3.58;;;24.90;60.40;;;;;;5033342;28;20359;-50
2023/06/14 11:41:45;;;;;;;7.00;2.90;;;24.40;58.30;;;;;;5030068;28;20089;-49
2023/06/14 11:44:11;;;;;;;10.17;5.17;;;23.90;60.10;;;;;;5013527;28;20046;-49
2023/06/14 11:46:38;;;;;;;6.82;3.58;;;24.30;62.40;;;;;;5013634;28;20279;-50
2023/06/14 11:49:08;;;;;;;5.32;2.70;;;24.40;58.50;;;;;;5013313;28;20029;-48
2023/06/14 11:51:38;;;;;;;6.13;3.65;;;24.40;58.30;;;;;;5012792;28;20033;-48
2023/06/14 11:54:07;;;;;;;8.82;4.40;;;24.50;61.30;;;;;;5029103;28;20060;-51
2023/06/14 11:56:34;;;;;;;7.65;3.50;;;24.50;58.10;;;;;;5013500;28;20022;-51
2023/06/14 11:59:05;;;;;;;6.25;2.72;;;24.70;59.80;;;;;;5013801;28;20367;-52
2023/06/14 12:01:37;;;;;;;12.40;3.92;;;24.60;58.20;;;;;;5013792;28;20110;-49
2023/06/14 12:04:04;;;;;;;7.05;3.50;;;24.40;58.60;;;;;;5013315;28;20037;-49
2023/06/14 12:06:39;;;;;;;6.00;3.72;;;24.40;60.50;;;;;;5013364;28;20030;-48
2023/06/14 12:09:12;;;;;;;8.25;4.28;;;24.20;60.90;;;;;;5013879;28;20022;-54
2023/06/14 12:11:39;;;;;;;8.38;4.32;;;24.40;62.60;;;;;;5013495;28;20028;-48
2023/06/14 12:14:08;;;;;;;6.40;3.47;;;24.10;60.80;;;;;;5028937;28;20115;-48
2023/06/14 12:16:40;;;;;;;8.80;3.05;;;23.90;62.40;;;;;;5013748;28;20026;-48
2023/06/14 12:19:13;;;;;;;7.88;3.88;;;23.90;62.50;;;;;;5013623;28;20418;-50
2023/06/14 12:21:40;;;;;;;8.60;3.97;;;23.70;63.40;;;;;;5013268;28;20037;-50
2023/06/14 12:24:08;;;;;;;7.43;4.20;;;23.60;64.30;;;;;;5013108;28;20098;-49
2023/06/14 12:26:39;;;;;;;8.82;4.00;;;23.40;62.40;;;;;;5013365;28;20033;-51
2023/06/14 12:29:07;;;;;;;8.25;3.63;;;23.30;63.40;;;;;;5013329;28;20061;-49
2023/06/14 12:31:36;;;;;;;7.95;2.88;;;23.30;63.50;;;;;;5029375;28;20065;-48
2023/06/14 12:34:03;;;;;;;10.18;4.80;;;23.30;64.20;;;;;;5032488;28;20022;-49
2023/06/14 12:36:31;;;;;;;9.45;3.80;;;23.40;62.80;;;;;;5032584;28;20033;-50
2023/06/14 12:38:59;;;;;;;6.10;4.32;;;23.40;63.10;;;;;;5031605;28;20478;-48
2023/06/14 12:41:27;;;;;;;10.15;3.90;;;23.50;62.60;;;;;;5032055;28;20037;-48
2023/06/14 12:43:54;;;;;;;10.70;4.35;;;23.50;62.20;;;;;;5032380;28;20017;-48
2023/06/14 12:46:22;;;;;;;8.50;3.25;;;23.40;63.40;;;;;;5025264;28;20072;-49
2023/06/14 12:48:49;;;;;;;11.88;4.38;;;23.60;61.80;;;;;;5016535;28;20499;-50
2023/06/14 12:51:22;;;;;;;6.05;3.38;;;23.50;62.40;;;;;;5015909;28;20029;-48
2023/06/14 12:53:49;;;;;;;8.93;3.85;;;23.50;63.30;;;;;;5016847;28;20034;-48
2023/06/14 12:56:16;;;;;;;11.10;3.30;;;23.50;63.40;;;;;;5017191;28;20030;-53
2023/06/14 12:58:43;;;;;;;11.65;3.85;;;23.50;63.10;;;;;;5017020;28;20065;-49
2023/06/14 13:01:08;;;;;;;7.07;3.88;;;23.40;64.40;;;;;;5016894;28;20506;-49